createdAt,value
2022-08-11T00:00:49.547Z,73.82
2022-08-11T00:01:53.939Z,73.82
2022-08-11T00:03:03.723Z,73.81
2022-08-11T00:04:06.747Z,73.82
2022-08-11T00:05:12.224Z,73.84
2022-08-11T00:06:23.339Z,73.78
2022-08-11T00:07:27.167Z,73.79
2022-08-11T00:08:31.677Z,73.82
2022-08-11T00:09:39.396Z,73.85
2022-08-11T00:10:44.274Z,73.87
2022-08-11T00:11:50.485Z,73.88
2022-08-11T00:13:04.235Z,73.90
2022-08-11T00:14:14.450Z,73.98
2022-08-11T00:15:17.648Z,74.09
2022-08-11T00:16:22.811Z,74.16
2022-08-11T00:17:30.805Z,74.14
2022-08-11T00:18:41.667Z,74.13
2022-08-11T00:20:13.344Z,74.06
2022-08-11T00:21:09.898Z,74.03
2022-08-11T00:22:20.758Z,73.98
2022-08-11T00:23:24.189Z,73.99
2022-08-11T00:24:32.726Z,74.03
2022-08-11T00:25:43.735Z,74.00
2022-08-11T00:26:50.998Z,74.01
2022-08-11T00:27:54.627Z,74.08
2022-08-11T00:29:07.720Z,74.09
2022-08-11T00:30:11.715Z,74.11
2022-08-11T00:31:22.273Z,74.08
2022-08-11T00:32:25.540Z,74.09
2022-08-11T00:33:41.385Z,74.10
2022-08-11T00:34:48.750Z,74.13
2022-08-11T00:35:57.828Z,74.13
2022-08-11T00:37:11.203Z,74.14
2022-08-11T00:38:15.255Z,74.14
2022-08-11T00:39:20.499Z,74.22
2022-08-11T00:40:42.837Z,74.30
2022-08-11T00:42:06.977Z,74.39
2022-08-11T00:43:19.952Z,74.42
2022-08-11T00:44:38.977Z,74.52
2022-08-11T00:46:00.697Z,74.54
2022-08-11T00:47:09.908Z,74.57
2022-08-11T00:48:28.677Z,74.59
2022-08-11T00:49:47.167Z,74.62
2022-08-11T00:51:00.277Z,74.61
2022-08-11T00:52:15.340Z,74.57
2022-08-11T00:53:25.229Z,74.53
2022-08-11T00:54:46.714Z,74.52
2022-08-11T00:56:10.388Z,74.62
2022-08-11T00:57:36.791Z,74.64
2022-08-11T00:58:59.503Z,74.72
2022-08-11T01:00:11.624Z,74.81
2022-08-11T01:01:17.433Z,74.85
2022-08-11T01:02:30.647Z,74.87
2022-08-11T01:03:52.204Z,74.88
2022-08-11T01:05:13.771Z,74.94
2022-08-11T01:06:35.588Z,74.96
2022-08-11T01:08:01.525Z,74.98
2022-08-11T01:09:41.609Z,75.01
2022-08-11T01:10:47.248Z,74.98
2022-08-11T01:11:56.375Z,74.95
2022-08-11T01:13:14.615Z,74.91
2022-08-11T01:14:36.136Z,74.86
2022-08-11T01:15:40.280Z,74.82
2022-08-11T01:17:09.815Z,74.84
2022-08-11T01:18:32.838Z,74.86
2022-08-11T01:20:39.450Z,74.95
2022-08-11T01:21:16.838Z,74.97
2022-08-11T01:22:48.623Z,74.98
2022-08-11T01:24:00.467Z,75.10
2022-08-11T01:25:12.287Z,75.17
2022-08-11T01:26:34.296Z,75.21
2022-08-11T01:27:37.162Z,75.20
2022-08-11T01:28:59.348Z,75.16
2022-08-11T01:30:03.642Z,75.18
2022-08-11T01:31:23.735Z,75.15
2022-08-11T01:32:33.293Z,75.18
2022-08-11T01:33:55.420Z,75.22
2022-08-11T01:35:03.848Z,75.22
2022-08-11T01:36:06.643Z,75.24
2022-08-11T01:37:21.708Z,75.24
2022-08-11T01:38:33.772Z,75.24
2022-08-11T01:39:42.957Z,75.26
2022-08-11T01:41:04.268Z,75.25
2022-08-11T01:43:01.422Z,75.25
2022-08-11T01:44:31.845Z,75.30
2022-08-11T01:45:40.624Z,75.30
2022-08-11T01:46:52.249Z,75.25
2022-08-11T01:48:11.153Z,75.23
2022-08-11T01:49:28.978Z,75.14
2022-08-11T01:51:08.059Z,75.02
2022-08-11T01:52:33.698Z,75.05
2022-08-11T01:53:40.034Z,75.12
2022-08-11T01:54:52.198Z,75.18
2022-08-11T01:56:05.781Z,75.20
2022-08-11T01:57:08.719Z,75.20
2022-08-11T01:58:34.318Z,75.20
2022-08-11T01:59:49.438Z,75.18
2022-08-11T02:01:05.778Z,75.13
2022-08-11T02:02:42.061Z,75.11
2022-08-11T02:03:55.482Z,75.06
2022-08-11T02:05:03.326Z,75.01
2022-08-11T02:06:26.191Z,74.99
2022-08-11T02:07:38.523Z,74.96
2022-08-11T02:08:50.939Z,74.94
2022-08-11T02:10:22.609Z,74.90
2022-08-11T02:11:35.507Z,74.87
2022-08-11T02:12:52.479Z,74.83
2022-08-11T02:13:55.927Z,74.77
2022-08-11T02:15:05.234Z,74.81
2022-08-11T02:16:08.626Z,74.85
2022-08-11T02:17:18.752Z,74.80
2022-08-11T02:18:24.844Z,74.77
2022-08-11T02:19:55.412Z,74.74
2022-08-11T02:21:21.253Z,74.72
2022-08-11T02:22:51.669Z,74.74
2022-08-11T02:24:05.292Z,74.75
2022-08-11T02:25:20.801Z,74.81
2022-08-11T02:26:25.684Z,74.89
2022-08-11T02:27:37.643Z,74.96
2022-08-11T02:28:46.676Z,75.05
2022-08-11T02:30:05.066Z,75.14
2022-08-11T02:32:14.683Z,75.20
2022-08-11T02:33:17.938Z,75.29
2022-08-11T02:34:21.018Z,75.29
2022-08-11T02:35:36.771Z,75.33
2022-08-11T02:36:45.555Z,75.35
2022-08-11T02:37:48.430Z,75.37
2022-08-11T02:38:57.300Z,75.38
2022-08-11T02:40:10.944Z,75.38
2022-08-11T02:41:42.250Z,75.36
2022-08-11T02:42:45.584Z,75.35
2022-08-11T02:44:11.793Z,75.33
2022-08-11T02:45:33.534Z,75.32
2022-08-11T02:46:58.883Z,75.41
2022-08-11T02:48:20.367Z,75.38
2022-08-11T02:50:02.620Z,75.31
2022-08-11T02:51:13.745Z,75.27
2022-08-11T02:52:36.994Z,75.32
2022-08-11T02:53:58.683Z,75.47
2022-08-11T02:55:56.367Z,75.59
2022-08-11T02:56:39.216Z,75.60
2022-08-11T02:57:54.865Z,75.61
2022-08-11T02:59:34.318Z,75.60
2022-08-11T03:00:45.639Z,75.58
2022-08-11T03:01:53.206Z,75.58
2022-08-11T03:03:16.432Z,75.61
2022-08-11T03:04:37.519Z,75.74
2022-08-11T03:05:50.298Z,75.91
2022-08-11T03:07:01.355Z,75.95
2022-08-11T03:08:18.716Z,76.00
2022-08-11T03:09:40.575Z,76.08
2022-08-11T03:11:08.146Z,76.11
2022-08-11T03:12:34.722Z,76.11
2022-08-11T03:14:02.365Z,76.08
2022-08-11T03:15:32.986Z,76.03
2022-08-11T03:16:46.525Z,75.96
2022-08-11T03:17:59.347Z,76.02
2022-08-11T03:19:11.391Z,76.05
2022-08-11T03:20:33.296Z,76.06
2022-08-11T03:22:02.252Z,76.06
2022-08-11T03:23:19.472Z,76.02
2022-08-11T03:24:32.130Z,75.99
2022-08-11T03:25:49.707Z,75.95
2022-08-11T03:26:53.943Z,75.86
2022-08-11T03:28:08.747Z,75.68
2022-08-11T03:29:44.051Z,75.81
2022-08-11T03:30:50.521Z,75.80
2022-08-11T03:32:00.672Z,75.74
2022-08-11T03:33:34.399Z,75.68
2022-08-11T03:34:39.168Z,75.63
2022-08-11T03:35:47.980Z,75.61
2022-08-11T03:37:17.058Z,75.59
2022-08-11T03:38:30.710Z,75.57
2022-08-11T03:39:36.511Z,75.57
2022-08-11T03:41:49.346Z,75.55
2022-08-11T03:42:36.244Z,75.55
2022-08-11T03:43:50.326Z,75.55
2022-08-11T03:45:07.892Z,75.58
2022-08-11T03:46:15.205Z,75.57
2022-08-11T03:47:23.949Z,75.55
2022-08-11T03:48:40.545Z,75.52
2022-08-11T03:49:52.422Z,75.47
2022-08-11T03:51:07.354Z,75.43
2022-08-11T03:52:10.281Z,75.38
2022-08-11T03:53:28.267Z,75.36
2022-08-11T03:54:50.141Z,75.35
2022-08-11T03:56:13.282Z,75.34
2022-08-11T03:57:36.634Z,75.27
2022-08-11T03:58:59.786Z,75.19
2022-08-11T04:00:09.130Z,75.14
2022-08-11T04:01:34.955Z,75.09
2022-08-11T04:02:56.564Z,75.00
2022-08-11T04:04:18.770Z,74.92
2022-08-11T04:05:40.329Z,74.82
2022-08-11T04:07:01.949Z,74.77
2022-08-11T04:08:23.423Z,74.72
2022-08-11T04:09:46.289Z,74.69
2022-08-11T04:11:17.865Z,74.68
2022-08-11T04:12:35.964Z,74.66
2022-08-11T04:13:52.101Z,74.58
2022-08-11T04:15:16.563Z,74.57
2022-08-11T04:16:31.870Z,74.56
2022-08-11T04:17:35.699Z,74.53
2022-08-11T04:18:57.384Z,74.53
2022-08-11T04:20:18.893Z,74.49
2022-08-11T04:21:51.459Z,74.44
2022-08-11T04:22:55.247Z,74.42
2022-08-11T04:24:36.728Z,74.41
2022-08-11T04:25:31.152Z,74.33
2022-08-11T04:26:46.190Z,74.26
2022-08-11T04:28:07.958Z,74.20
2022-08-11T04:29:35.949Z,74.08
2022-08-11T04:30:58.112Z,74.00
2022-08-11T04:32:21.632Z,73.95
2022-08-11T04:33:37.642Z,73.88
2022-08-11T04:34:57.181Z,73.81
2022-08-11T04:36:15.424Z,73.75
2022-08-11T04:37:37.044Z,73.65
2022-08-11T04:38:42.654Z,73.47
2022-08-11T04:40:03.662Z,73.39
2022-08-11T04:41:14.404Z,73.38
2022-08-11T04:43:15.030Z,73.35
2022-08-11T04:44:52.224Z,73.31
2022-08-11T04:46:06.984Z,73.20
2022-08-11T04:48:04.492Z,73.14
2022-08-11T04:49:34.134Z,73.04
2022-08-11T04:51:16.647Z,72.95
2022-08-11T04:52:38.972Z,72.86
2022-08-11T04:54:15.076Z,72.79
2022-08-11T04:55:37.827Z,72.47
2022-08-11T04:57:02.448Z,72.34
2022-08-11T04:58:31.476Z,72.42
2022-08-11T05:00:11.430Z,72.38
2022-08-11T05:01:43.004Z,72.18
2022-08-11T05:02:46.147Z,72.13
2022-08-11T05:04:03.939Z,72.08
2022-08-11T05:05:28.509Z,72.09
2022-08-11T05:06:37.221Z,72.03
2022-08-11T05:07:53.658Z,71.94
2022-08-11T05:09:15.262Z,71.77
2022-08-11T05:10:39.989Z,71.54
2022-08-11T05:12:05.021Z,71.31
2022-08-11T05:13:27.793Z,71.25
2022-08-11T05:14:52.221Z,71.08
2022-08-11T05:16:15.140Z,70.77
2022-08-11T05:17:42.530Z,70.72
2022-08-11T05:19:09.050Z,70.59
2022-08-11T05:20:51.266Z,70.43
2022-08-11T05:22:13.944Z,70.20
2022-08-11T05:23:38.031Z,70.06
2022-08-11T05:25:04.284Z,69.82
2022-08-11T05:26:46.313Z,69.70
2022-08-11T05:28:09.148Z,69.57
2022-08-11T05:29:44.101Z,69.29
2022-08-11T05:31:06.174Z,68.86
2022-08-11T05:32:31.006Z,68.26
2022-08-11T05:33:54.747Z,67.54
2022-08-11T05:35:00.980Z,67.57
2022-08-11T05:36:18.048Z,67.49
2022-08-11T05:37:29.808Z,67.51
2022-08-11T05:38:54.539Z,67.52
2022-08-11T05:40:27.769Z,67.41
2022-08-11T05:41:50.239Z,67.31
2022-08-11T05:43:18.658Z,67.25
2022-08-11T05:44:40.488Z,67.00
2022-08-11T05:46:06.298Z,66.30
2022-08-11T05:47:30.459Z,65.37
2022-08-11T05:48:52.873Z,66.06
2022-08-11T05:50:15.308Z,65.76
2022-08-11T05:51:37.362Z,65.82
2022-08-11T05:53:03.887Z,64.78
2022-08-11T05:54:29.540Z,65.34
2022-08-11T05:56:02.304Z,64.43
2022-08-11T05:57:06.417Z,64.39
2022-08-11T05:58:11.520Z,65.02
2022-08-11T05:59:16.594Z,64.90
2022-08-11T06:00:20.367Z,64.92
2022-08-11T06:01:26.788Z,65.22
2022-08-11T06:02:30.703Z,65.18
2022-08-11T06:03:58.470Z,65.20
2022-08-11T06:05:02.663Z,63.44
2022-08-11T06:06:08.755Z,63.78
2022-08-11T06:07:13.263Z,63.85
2022-08-11T06:08:17.435Z,63.92
2022-08-11T06:09:29.822Z,63.85
2022-08-11T06:10:36.161Z,63.56
2022-08-11T06:11:43.073Z,63.28
2022-08-11T06:12:52.908Z,63.36
2022-08-11T06:13:57.480Z,63.21
2022-08-11T06:15:05.869Z,62.93
2022-08-11T06:16:09.231Z,62.74
2022-08-11T06:17:13.803Z,62.25
2022-08-11T06:18:17.323Z,61.69
2022-08-11T06:19:23.180Z,61.95
2022-08-11T06:20:26.491Z,62.02
2022-08-11T06:21:33.382Z,62.00
2022-08-11T06:22:36.789Z,61.38
2022-08-11T06:23:42.358Z,61.17
2022-08-11T06:24:51.629Z,61.26
2022-08-11T06:25:56.494Z,61.31
2022-08-11T06:27:15.812Z,61.10
2022-08-11T06:28:21.338Z,61.01
2022-08-11T06:29:46.763Z,60.62
2022-08-11T06:30:49.108Z,60.33
2022-08-11T06:31:53.760Z,60.67
2022-08-11T06:33:00.395Z,60.06
2022-08-11T06:34:12.947Z,59.70
2022-08-11T06:35:37.999Z,59.54
2022-08-11T06:36:54.432Z,58.59
2022-08-11T06:38:29.397Z,57.91
2022-08-11T06:39:51.057Z,60.11
2022-08-11T06:41:15.405Z,58.93
2022-08-11T06:42:37.468Z,60.10
2022-08-11T06:43:42.365Z,60.05
2022-08-11T06:45:08.443Z,61.36
2022-08-11T06:46:12.837Z,61.06
2022-08-11T06:47:31.794Z,62.13
2022-08-11T06:48:35.637Z,61.69
2022-08-11T06:50:01.891Z,62.29
2022-08-11T06:51:14.424Z,62.46
2022-08-11T06:52:35.099Z,62.55
2022-08-11T06:53:42.627Z,62.28
2022-08-11T06:55:08.085Z,62.29
2022-08-11T06:56:40.435Z,62.09
2022-08-11T06:58:05.705Z,61.74
2022-08-11T06:59:28.801Z,61.66
2022-08-11T07:00:33.481Z,61.65
2022-08-11T07:01:47.684Z,61.44
2022-08-11T07:03:00.819Z,61.56
2022-08-11T07:04:08.346Z,61.90
2022-08-11T07:05:23.576Z,61.45
2022-08-11T07:06:50.702Z,61.22
2022-08-11T07:08:35.188Z,61.54
2022-08-11T07:10:06.347Z,61.42
2022-08-11T07:11:46.585Z,61.36
2022-08-11T07:13:10.327Z,61.44
2022-08-11T07:14:52.436Z,61.40
2022-08-11T07:16:12.870Z,61.60
2022-08-11T07:17:19.724Z,61.33
2022-08-11T07:18:41.326Z,61.13
2022-08-11T07:20:06.370Z,60.94
2022-08-11T07:22:00.411Z,61.02
2022-08-11T07:23:16.058Z,60.92
2022-08-11T07:25:01.347Z,60.96
2022-08-11T07:26:22.124Z,60.45
2022-08-11T07:27:45.371Z,60.19
2022-08-11T07:28:59.164Z,59.95
2022-08-11T07:30:07.138Z,60.31
2022-08-11T07:31:14.221Z,60.32
2022-08-11T07:32:23.376Z,60.46
2022-08-11T07:34:07.268Z,60.41
2022-08-11T07:35:15.377Z,60.08
2022-08-11T07:36:20.349Z,59.98
2022-08-11T07:37:26.186Z,60.05
2022-08-11T07:38:47.220Z,60.18
2022-08-11T07:39:51.997Z,60.44
2022-08-11T07:40:58.294Z,60.37
2022-08-11T07:42:06.097Z,59.89
2022-08-11T07:43:09.779Z,60.30
2022-08-11T07:44:15.175Z,60.06
2022-08-11T07:45:38.969Z,60.02
2022-08-11T07:47:02.160Z,60.01
2022-08-11T07:48:26.167Z,59.72
2022-08-11T07:49:54.015Z,59.87
2022-08-11T07:51:16.325Z,59.92
2022-08-11T07:52:32.648Z,59.90
2022-08-11T07:53:41.716Z,59.66
2022-08-11T07:55:03.163Z,59.62
2022-08-11T07:56:07.377Z,59.57
2022-08-11T07:57:47.346Z,59.34
2022-08-11T07:59:13.204Z,58.89
2022-08-11T08:00:36.252Z,59.97
2022-08-11T08:01:58.599Z,59.32
2022-08-11T08:03:20.979Z,60.44
2022-08-11T08:04:47.147Z,60.36
2022-08-11T08:06:15.381Z,61.16
2022-08-11T08:07:51.408Z,60.62
2022-08-11T08:09:17.042Z,61.72
2022-08-11T08:10:39.196Z,60.95
2022-08-11T08:12:02.360Z,61.30
2022-08-11T08:13:25.048Z,61.04
2022-08-11T08:14:46.815Z,61.83
2022-08-11T08:16:08.465Z,62.34
2022-08-11T08:17:32.612Z,62.55
2022-08-11T08:18:36.410Z,63.01
2022-08-11T08:19:41.222Z,62.78
2022-08-11T08:20:49.838Z,61.94
2022-08-11T08:21:53.618Z,62.31
2022-08-11T08:23:08.384Z,62.46
2022-08-11T08:24:11.714Z,61.30
2022-08-11T08:25:15.265Z,61.43
2022-08-11T08:26:37.292Z,61.12
2022-08-11T08:27:43.702Z,60.77
2022-08-11T08:28:46.827Z,60.88
2022-08-11T08:30:08.686Z,60.52
2022-08-11T08:31:11.730Z,60.21
2022-08-11T08:32:16.457Z,60.05
2022-08-11T08:33:21.436Z,59.81
2022-08-11T08:34:24.769Z,59.24
2022-08-11T08:35:32.945Z,59.09
2022-08-11T08:36:36.972Z,59.03
2022-08-11T08:37:46.798Z,59.05
2022-08-11T08:38:54.083Z,59.20
2022-08-11T08:39:59.259Z,58.74
2022-08-11T08:41:02.695Z,58.86
2022-08-11T08:42:12.792Z,59.30
2022-08-11T08:43:17.454Z,59.94
2022-08-11T08:44:37.669Z,59.83
2022-08-11T08:45:42.916Z,60.40
2022-08-11T08:46:48.371Z,60.45
2022-08-11T08:48:00.057Z,60.48
2022-08-11T08:49:04.030Z,60.57
2022-08-11T08:50:10.753Z,60.62
2022-08-11T08:52:01.461Z,60.91
2022-08-11T08:52:59.826Z,60.81
2022-08-11T08:54:17.927Z,60.54
2022-08-11T08:55:21.953Z,60.86
2022-08-11T08:56:28.346Z,60.85
2022-08-11T08:57:39.957Z,60.62
2022-08-11T08:58:46.001Z,61.11
2022-08-11T08:59:49.809Z,60.98
2022-08-11T09:00:56.342Z,60.70
2022-08-11T09:02:03.607Z,60.58
2022-08-11T09:03:36.130Z,60.17
2022-08-11T09:04:30.065Z,60.80
2022-08-11T09:05:33.061Z,60.42
2022-08-11T09:06:50.046Z,60.53
2022-08-11T09:07:58.086Z,60.50
2022-08-11T09:09:01.053Z,60.42
2022-08-11T09:10:04.762Z,60.43
2022-08-11T09:11:27.232Z,60.17
2022-08-11T09:12:36.229Z,59.62
2022-08-11T09:13:44.554Z,59.27
2022-08-11T09:15:06.409Z,60.19
2022-08-11T09:16:10.306Z,59.94
2022-08-11T09:17:13.757Z,60.02
2022-08-11T09:18:18.105Z,59.99
2022-08-11T09:19:21.711Z,59.57
2022-08-11T09:20:29.403Z,59.56
2022-08-11T09:21:44.458Z,59.49
2022-08-11T09:24:08.781Z,59.37
2022-08-11T09:24:56.835Z,58.18
2022-08-11T09:26:19.351Z,57.24
2022-08-11T09:27:23.164Z,57.50
2022-08-11T09:28:29.608Z,57.26
2022-08-11T09:29:33.071Z,57.42
2022-08-11T09:30:36.984Z,57.20
2022-08-11T09:31:40.627Z,56.68
2022-08-11T09:32:44.423Z,55.91
2022-08-11T09:33:47.801Z,55.14
2022-08-11T09:34:52.492Z,52.26
2022-08-11T09:35:57.562Z,52.17
2022-08-11T09:37:54.419Z,52.96
2022-08-11T09:39:00.591Z,53.69
2022-08-11T09:40:22.837Z,53.86
2022-08-11T09:42:00.415Z,54.52
2022-08-11T09:43:17.442Z,54.94
2022-08-11T09:44:39.552Z,55.17
2022-08-11T09:45:46.349Z,55.29
2022-08-11T09:46:50.242Z,54.99
2022-08-11T09:47:55.584Z,55.57
2022-08-11T09:48:59.628Z,55.56
2022-08-11T09:50:03.395Z,55.52
2022-08-11T09:51:07.349Z,54.89
2022-08-11T09:52:11.044Z,55.05
2022-08-11T09:53:36.182Z,54.98
2022-08-11T09:54:39.029Z,54.55
2022-08-11T09:55:43.449Z,54.75
2022-08-11T09:57:05.549Z,54.81
2022-08-11T09:58:42.678Z,54.33
2022-08-11T09:59:37.885Z,52.70
2022-08-11T10:00:41.166Z,52.37
2022-08-11T10:01:47.250Z,52.00
2022-08-11T10:02:53.241Z,51.25
2022-08-11T10:04:11.587Z,51.22
2022-08-11T10:05:37.454Z,51.91
2022-08-11T10:06:59.327Z,52.19
2022-08-11T10:08:02.899Z,52.14
2022-08-11T10:09:06.374Z,51.82
2022-08-11T10:10:10.072Z,51.39
2022-08-11T10:11:15.404Z,51.72
2022-08-11T10:12:26.926Z,51.63
2022-08-11T10:14:04.825Z,52.08
2022-08-11T10:15:22.214Z,52.16
2022-08-11T10:16:27.949Z,51.10
2022-08-11T10:17:33.068Z,51.77
2022-08-11T10:18:49.373Z,52.20
2022-08-11T10:20:04.345Z,52.37
2022-08-11T10:21:08.813Z,52.25
2022-08-11T10:22:30.255Z,52.34
2022-08-11T10:24:01.188Z,52.06
2022-08-11T10:25:27.704Z,51.09
2022-08-11T10:26:49.613Z,50.63
2022-08-11T10:28:28.946Z,50.95
2022-08-11T10:29:44.562Z,50.01
2022-08-11T10:31:12.554Z,49.75
2022-08-11T10:32:58.136Z,49.70
2022-08-11T10:34:06.279Z,49.74
2022-08-11T10:35:14.473Z,48.15
2022-08-11T10:36:18.566Z,47.14
2022-08-11T10:37:23.395Z,47.14
2022-08-11T10:38:27.260Z,47.95
2022-08-11T10:39:30.309Z,48.60
2022-08-11T10:40:33.725Z,49.03
2022-08-11T10:42:06.124Z,48.86
2022-08-11T10:44:02.045Z,49.02
2022-08-11T10:44:42.271Z,48.36
2022-08-11T10:46:04.517Z,49.11
2022-08-11T10:47:26.817Z,49.00
2022-08-11T10:48:30.729Z,47.55
2022-08-11T10:49:33.675Z,48.05
2022-08-11T10:50:56.042Z,47.65
2022-08-11T10:52:18.346Z,47.76
2022-08-11T10:53:40.363Z,47.92
2022-08-11T10:55:02.322Z,46.71
2022-08-11T10:56:25.476Z,46.33
2022-08-11T10:58:04.159Z,46.42
2022-08-11T10:59:09.524Z,46.94
2022-08-11T11:00:15.920Z,46.29
2022-08-11T11:01:23.750Z,45.95
2022-08-11T11:02:27.519Z,43.57
2022-08-11T11:03:31.361Z,42.59
2022-08-11T11:04:48.915Z,44.33
2022-08-11T11:06:27.922Z,44.60
2022-08-11T11:07:24.926Z,44.17
2022-08-11T11:10:01.640Z,45.62
2022-08-11T11:11:06.537Z,44.89
2022-08-11T11:12:30.908Z,44.29
2022-08-11T11:13:55.319Z,44.48
2022-08-11T11:15:20.784Z,44.49
2022-08-11T11:16:42.952Z,44.56
2022-08-11T11:17:57.221Z,45.00
2022-08-11T11:19:04.216Z,44.86
2022-08-11T11:20:07.812Z,45.13
2022-08-11T11:21:14.563Z,44.92
2022-08-11T11:22:36.279Z,43.88
2022-08-11T11:23:42.139Z,42.83
2022-08-11T11:24:58.887Z,42.83
2022-08-11T11:26:11.042Z,43.43
2022-08-11T11:27:32.667Z,43.14
2022-08-11T11:28:54.650Z,42.31
2022-08-11T11:30:08.834Z,42.78
2022-08-11T11:31:24.127Z,42.96
2022-08-11T11:32:35.942Z,42.91
2022-08-11T11:34:12.808Z,41.50
2022-08-11T11:35:15.938Z,41.46
2022-08-11T11:36:25.649Z,41.63
2022-08-11T11:37:30.586Z,41.54
2022-08-11T11:38:33.654Z,42.09
2022-08-11T11:39:37.296Z,41.57
2022-08-11T11:40:40.630Z,40.81
2022-08-11T11:41:43.781Z,40.22
2022-08-11T11:42:48.315Z,41.29
2022-08-11T11:43:55.927Z,39.51
2022-08-11T11:45:01.483Z,39.63
2022-08-11T11:46:05.355Z,38.12
2022-08-11T11:47:08.879Z,39.22
2022-08-11T11:48:12.031Z,39.82
2022-08-11T11:49:17.513Z,39.40
2022-08-11T11:50:31.747Z,38.72
2022-08-11T11:51:37.536Z,37.66
2022-08-11T11:52:41.307Z,38.41
2022-08-11T11:53:45.561Z,38.11
2022-08-11T11:54:50.548Z,37.92
2022-08-11T11:55:53.862Z,38.33
2022-08-11T11:56:57.824Z,37.01
2022-08-11T11:58:20.281Z,37.41
2022-08-11T11:59:44.943Z,36.85
2022-08-11T12:01:07.004Z,36.76
2022-08-11T12:02:12.399Z,36.78
2022-08-11T12:03:16.437Z,37.41
2022-08-11T12:04:20.392Z,37.73
2022-08-11T12:05:24.120Z,37.55
2022-08-11T12:06:28.250Z,37.21
2022-08-11T12:08:04.847Z,37.81
2022-08-11T12:09:18.457Z,36.68
2022-08-11T12:10:21.899Z,37.48
2022-08-11T12:11:44.346Z,37.14
2022-08-11T12:13:06.669Z,37.47
2022-08-11T12:14:11.204Z,37.98
2022-08-11T12:15:14.537Z,37.06
2022-08-11T12:16:33.573Z,33.79
2022-08-11T12:17:39.780Z,36.75
2022-08-11T12:18:43.778Z,36.22
2022-08-11T12:19:48.601Z,36.62
2022-08-11T12:20:51.655Z,34.92
2022-08-11T12:22:16.488Z,36.15
2022-08-11T12:23:38.282Z,36.24
2022-08-11T12:24:59.925Z,35.15
2022-08-11T12:26:27.317Z,35.03
2022-08-11T12:27:30.917Z,36.20
2022-08-11T12:28:34.206Z,35.51
2022-08-11T12:29:41.139Z,35.22
2022-08-11T12:30:49.588Z,34.96
2022-08-11T12:31:58.751Z,35.42
2022-08-11T12:33:01.912Z,34.70
2022-08-11T12:34:10.891Z,35.30
2022-08-11T12:35:15.318Z,34.94
2022-08-11T12:36:20.193Z,35.13
2022-08-11T12:37:54.265Z,34.61
2022-08-11T12:39:00.753Z,34.17
2022-08-11T12:40:43.711Z,34.67
2022-08-11T12:42:18.424Z,34.44
2022-08-11T12:43:42.114Z,33.94
2022-08-11T12:45:03.695Z,33.37
2022-08-11T12:46:08.604Z,33.28
2022-08-11T12:47:12.944Z,33.19
2022-08-11T12:48:58.854Z,32.02
2022-08-11T12:50:22.950Z,31.83
2022-08-11T12:52:11.727Z,31.18
2022-08-11T12:53:12.188Z,31.25
2022-08-11T12:54:17.304Z,30.09
2022-08-11T12:55:42.362Z,30.70
2022-08-11T12:57:36.125Z,28.73
2022-08-11T12:58:41.782Z,29.55
2022-08-11T13:00:04.047Z,27.24
2022-08-11T13:01:26.046Z,27.55
2022-08-11T13:02:47.889Z,30.55
2022-08-11T13:04:09.752Z,29.98
2022-08-11T13:05:13.419Z,30.70
2022-08-11T13:06:18.690Z,30.46
2022-08-11T13:07:22.747Z,30.71
2022-08-11T13:08:26.778Z,29.54
2022-08-11T13:09:30.766Z,29.38
2022-08-11T13:10:52.569Z,27.91
2022-08-11T13:12:14.083Z,29.36
2022-08-11T13:13:55.600Z,28.90
2022-08-11T13:14:41.692Z,27.85
2022-08-11T13:15:46.462Z,28.33
2022-08-11T13:17:08.097Z,27.84
2022-08-11T13:18:15.050Z,27.14
2022-08-11T13:19:18.635Z,26.95
2022-08-11T13:20:23.040Z,24.79
2022-08-11T13:21:26.663Z,28.32
2022-08-11T13:22:30.119Z,28.39
2022-08-11T13:23:38.099Z,26.96
2022-08-11T13:24:41.094Z,27.73
2022-08-11T13:25:44.374Z,26.98
2022-08-11T13:26:50.315Z,26.69
2022-08-11T13:27:56.196Z,25.92
2022-08-11T13:29:03.892Z,24.82
2022-08-11T13:30:25.635Z,24.65
2022-08-11T13:31:29.065Z,25.55
2022-08-11T13:32:33.826Z,26.41
2022-08-11T13:33:47.565Z,25.28
2022-08-11T13:34:52.478Z,24.41
2022-08-11T13:35:56.034Z,25.80
2022-08-11T13:37:01.070Z,26.28
2022-08-11T13:38:19.184Z,24.86
2022-08-11T13:39:25.184Z,24.52
2022-08-11T13:40:45.737Z,24.42
2022-08-11T13:41:56.915Z,23.06
2022-08-11T13:43:00.488Z,24.84
2022-08-11T13:44:04.508Z,25.03
2022-08-11T13:45:08.115Z,24.50
2022-08-11T13:46:20.530Z,24.68
2022-08-11T13:47:24.970Z,25.41
2022-08-11T13:48:28.362Z,24.27
2022-08-11T13:49:33.284Z,24.83
2022-08-11T13:50:55.077Z,24.91
2022-08-11T13:51:58.792Z,23.58
2022-08-11T13:53:02.124Z,24.80
2022-08-11T13:54:09.442Z,24.00
2022-08-11T13:55:51.113Z,24.52
2022-08-11T13:56:47.038Z,23.48
2022-08-11T13:58:19.594Z,23.38
2022-08-11T13:59:20.407Z,24.57
2022-08-11T14:00:31.252Z,23.31
2022-08-11T14:02:21.415Z,23.65
2022-08-11T14:03:00.191Z,22.76
2022-08-11T14:04:30.734Z,23.66
2022-08-11T14:05:38.985Z,23.03
2022-08-11T14:06:49.194Z,23.36
2022-08-11T14:08:33.435Z,23.73
2022-08-11T14:09:43.543Z,23.77
2022-08-11T14:12:20.258Z,23.53
2022-08-11T14:12:52.800Z,21.74
2022-08-11T14:13:57.159Z,21.27
2022-08-11T14:15:08.175Z,20.19
2022-08-11T14:16:25.072Z,20.02
2022-08-11T14:17:35.985Z,21.22
2022-08-11T14:18:53.947Z,22.92
2022-08-11T14:19:57.681Z,22.72
2022-08-11T14:21:20.342Z,22.90
2022-08-11T14:22:23.984Z,19.47
2022-08-11T14:23:32.915Z,21.15
2022-08-11T14:24:40.615Z,22.12
2022-08-11T14:26:04.050Z,21.95
2022-08-11T14:28:29.395Z,20.52
2022-08-11T14:28:40.236Z,22.35
2022-08-11T14:29:48.932Z,22.59
2022-08-11T14:30:58.943Z,22.37
2022-08-11T14:32:05.379Z,21.96
2022-08-11T14:33:16.908Z,21.60
2022-08-11T14:34:21.874Z,21.09
2022-08-11T14:35:27.223Z,22.48
2022-08-11T14:36:32.811Z,22.53
2022-08-11T14:37:37.919Z,21.97
2022-08-11T14:38:41.760Z,20.62
2022-08-11T14:39:54.009Z,21.22
2022-08-11T14:41:15.930Z,20.48
2022-08-11T14:42:38.230Z,20.43
2022-08-11T14:44:10.425Z,22.52
2022-08-11T14:45:58.314Z,21.50
2022-08-11T14:47:22.934Z,21.98
2022-08-11T14:48:26.867Z,20.41
2022-08-11T14:49:30.288Z,21.84
2022-08-11T14:50:34.470Z,22.19
2022-08-11T14:51:37.790Z,21.91
2022-08-11T14:52:45.973Z,21.77
2022-08-11T14:54:09.159Z,22.26
2022-08-11T14:55:31.207Z,21.35
2022-08-11T14:56:38.022Z,21.59
2022-08-11T14:57:54.731Z,22.22
2022-08-11T14:59:00.213Z,21.98
2022-08-11T15:00:06.833Z,22.14
2022-08-11T15:01:30.118Z,21.83
2022-08-11T15:02:52.685Z,22.01
2022-08-11T15:04:25.038Z,22.10
2022-08-11T15:05:20.509Z,20.87
2022-08-11T15:06:25.521Z,21.97
2022-08-11T15:07:31.752Z,22.00
2022-08-11T15:08:56.880Z,22.05
2022-08-11T15:10:16.800Z,21.61
2022-08-11T15:11:40.169Z,22.28
2022-08-11T15:12:43.415Z,21.84
2022-08-11T15:13:46.421Z,22.22
2022-08-11T15:15:08.617Z,22.41
2022-08-11T15:16:30.184Z,22.47
2022-08-11T15:17:43.040Z,21.87
2022-08-11T15:18:46.911Z,22.17
2022-08-11T15:20:09.288Z,21.90
2022-08-11T15:21:30.546Z,22.42
2022-08-11T15:22:52.365Z,22.27
2022-08-11T15:24:13.841Z,22.37
2022-08-11T15:25:16.773Z,22.32
2022-08-11T15:26:46.218Z,22.40
2022-08-11T15:28:09.810Z,22.51
2022-08-11T15:29:33.279Z,22.40
2022-08-11T15:30:55.995Z,22.89
2022-08-11T15:32:17.826Z,23.53
2022-08-11T15:33:40.536Z,24.01
2022-08-11T15:35:04.162Z,24.48
2022-08-11T15:36:27.542Z,25.17
2022-08-11T15:37:32.114Z,25.76
2022-08-11T15:38:36.403Z,26.28
2022-08-11T15:40:31.212Z,26.91
2022-08-11T15:42:00.443Z,27.01
2022-08-11T15:43:29.295Z,27.99
2022-08-11T15:45:08.840Z,29.66
2022-08-11T15:46:17.542Z,28.88
2022-08-11T15:47:23.239Z,30.14
2022-08-11T15:48:34.373Z,31.28
2022-08-11T15:50:10.796Z,32.28
2022-08-11T15:51:06.203Z,31.36
2022-08-11T15:52:11.047Z,30.71
2022-08-11T15:53:20.279Z,31.24
2022-08-11T15:54:28.944Z,32.71
2022-08-11T15:55:34.985Z,32.47
2022-08-11T15:56:40.025Z,34.04
2022-08-11T15:58:15.563Z,33.38
2022-08-11T15:59:41.470Z,35.82
2022-08-11T16:01:09.920Z,33.96
2022-08-11T16:02:32.942Z,36.33
2022-08-11T16:04:07.323Z,34.66
2022-08-11T16:05:13.598Z,36.68
2022-08-11T16:06:17.604Z,37.61
2022-08-11T16:07:26.775Z,37.24
2022-08-11T16:08:33.116Z,36.30
2022-08-11T16:09:47.683Z,35.77
2022-08-11T16:10:56.736Z,36.38
2022-08-11T16:12:01.987Z,38.03
2022-08-11T16:13:06.282Z,38.34